createdAt,value
2023-03-30T00:01:31.178Z,49.55
2023-03-30T00:03:59.379Z,49.40
2023-03-30T00:06:26.777Z,49.70
2023-03-30T00:08:58.506Z,49.56
2023-03-30T00:11:27.304Z,49.71
2023-03-30T00:13:54.892Z,50.10
2023-03-30T00:16:22.318Z,49.55
2023-03-30T00:18:50.793Z,49.85
2023-03-30T00:21:20.979Z,50.11
2023-03-30T00:23:48.657Z,49.22
2023-03-30T00:26:17.116Z,49.47
2023-03-30T00:28:45.113Z,49.21
2023-03-30T00:31:13.335Z,50.56
2023-03-30T00:33:46.922Z,49.57
2023-03-30T00:36:16.025Z,50.17
2023-03-30T00:38:44.286Z,48.72
2023-03-30T00:41:11.577Z,48.88
2023-03-30T00:44:34.277Z,50.66
2023-03-30T00:47:01.990Z,50.57
2023-03-30T00:49:29.739Z,50.00
2023-03-30T00:51:56.913Z,49.84
2023-03-30T00:54:24.563Z,48.84
2023-03-30T00:56:51.885Z,49.36
2023-03-30T00:59:19.418Z,50.04
2023-03-30T01:01:50.473Z,50.03
2023-03-30T01:04:19.103Z,50.17
2023-03-30T01:06:48.946Z,50.25
2023-03-30T01:09:17.166Z,49.99
2023-03-30T01:11:44.695Z,49.75
2023-03-30T01:14:15.033Z,49.79
2023-03-30T01:16:43.099Z,50.41
2023-03-30T01:19:16.544Z,50.55
2023-03-30T01:22:14.962Z,51.01
2023-03-30T01:25:25.367Z,51.18
2023-03-30T01:28:14.925Z,51.61
2023-03-30T01:30:45.132Z,51.27
2023-03-30T01:33:28.361Z,51.29
2023-03-30T01:36:45.865Z,52.46
2023-03-30T01:39:48.730Z,53.30
2023-03-30T01:42:36.255Z,53.64
2023-03-30T01:45:40.345Z,52.73
2023-03-30T01:48:18.113Z,52.66
2023-03-30T01:50:54.238Z,53.79
2023-03-30T01:54:10.099Z,54.15
2023-03-30T01:56:54.498Z,54.33
2023-03-30T01:59:31.295Z,52.78
2023-03-30T02:02:04.411Z,53.56
2023-03-30T02:04:36.438Z,53.50
2023-03-30T02:07:14.659Z,53.26
2023-03-30T02:09:43.916Z,53.74
2023-03-30T02:12:12.472Z,53.68
2023-03-30T02:14:41.856Z,53.54
2023-03-30T02:17:18.166Z,53.20
2023-03-30T02:19:46.634Z,52.78
2023-03-30T02:22:17.941Z,51.88
2023-03-30T02:24:48.530Z,51.59
2023-03-30T02:27:17.910Z,51.16
2023-03-30T02:29:46.093Z,51.67
2023-03-30T02:32:41.237Z,50.56
2023-03-30T02:35:30.083Z,52.46
2023-03-30T02:38:22.007Z,51.80
2023-03-30T02:41:11.100Z,52.90
2023-03-30T02:44:00.493Z,52.81
2023-03-30T02:46:51.013Z,52.51
2023-03-30T02:49:38.195Z,52.45
2023-03-30T02:52:26.695Z,52.55
2023-03-30T02:55:23.450Z,52.27
2023-03-30T02:58:05.066Z,52.55
2023-03-30T03:00:50.225Z,54.04
2023-03-30T03:03:31.941Z,53.42
2023-03-30T03:06:03.064Z,53.48
2023-03-30T03:08:37.200Z,53.99
2023-03-30T03:11:04.886Z,54.70
2023-03-30T03:13:36.936Z,56.04
2023-03-30T03:16:05.769Z,57.17
2023-03-30T03:18:35.184Z,56.59
2023-03-30T03:21:02.691Z,56.61
2023-03-30T03:23:31.078Z,58.55
2023-03-30T03:26:00.369Z,58.92
2023-03-30T03:28:30.445Z,59.19
2023-03-30T03:31:00.001Z,59.43
2023-03-30T03:33:32.031Z,59.29
2023-03-30T03:36:01.588Z,60.06
2023-03-30T03:38:30.186Z,60.35
2023-03-30T03:40:59.566Z,60.56
2023-03-30T03:43:27.103Z,60.32
2023-03-30T03:45:55.604Z,61.60
2023-03-30T03:48:24.787Z,61.22
2023-03-30T03:50:57.787Z,62.18
2023-03-30T03:53:27.837Z,61.65
2023-03-30T03:55:55.914Z,62.39
2023-03-30T03:58:23.983Z,63.17
2023-03-30T04:00:52.453Z,63.35
2023-03-30T04:03:20.240Z,62.88
2023-03-30T04:05:47.625Z,63.70
2023-03-30T04:08:18.205Z,62.89
2023-03-30T04:10:46.313Z,63.32
2023-03-30T04:13:15.561Z,64.37
2023-03-30T04:15:42.957Z,64.27
2023-03-30T04:18:11.423Z,63.74
2023-03-30T04:20:40.251Z,65.78
2023-03-30T04:23:10.077Z,65.77
2023-03-30T04:25:39.996Z,65.00
2023-03-30T04:28:07.478Z,65.05
2023-03-30T04:30:35.752Z,66.29
2023-03-30T04:33:05.051Z,66.19
2023-03-30T04:35:34.235Z,65.94
2023-03-30T04:38:02.624Z,66.65
2023-03-30T04:40:30.847Z,66.45
2023-03-30T04:43:03.907Z,66.11
2023-03-30T04:45:31.854Z,66.50
2023-03-30T04:47:59.535Z,66.00
2023-03-30T04:50:27.907Z,65.61
2023-03-30T04:52:59.719Z,66.39
2023-03-30T04:55:27.516Z,65.80
2023-03-30T04:57:55.250Z,65.67
2023-03-30T05:00:24.442Z,65.75
2023-03-30T05:02:52.281Z,65.55
2023-03-30T05:05:19.919Z,64.75
2023-03-30T05:07:47.966Z,65.78
2023-03-30T05:10:15.803Z,65.63
2023-03-30T05:12:43.398Z,65.63
2023-03-30T05:15:12.330Z,64.78
2023-03-30T05:17:40.175Z,65.23
2023-03-30T05:20:08.844Z,64.85
2023-03-30T05:22:39.624Z,64.15
2023-03-30T05:25:07.745Z,64.30
2023-03-30T05:27:35.357Z,64.81
2023-03-30T05:30:04.211Z,65.26
2023-03-30T05:32:32.549Z,65.34
2023-03-30T05:35:01.567Z,64.89
2023-03-30T05:37:29.620Z,63.99
2023-03-30T05:39:57.788Z,64.74
2023-03-30T05:42:25.931Z,64.79
2023-03-30T05:44:53.737Z,64.15
2023-03-30T05:47:25.274Z,64.54
2023-03-30T05:49:53.591Z,64.42
2023-03-30T05:52:22.672Z,65.31
2023-03-30T05:54:50.723Z,65.04
2023-03-30T05:57:19.399Z,63.76
2023-03-30T05:59:47.650Z,65.02
2023-03-30T06:02:15.406Z,65.23
2023-03-30T06:04:43.222Z,64.61
2023-03-30T06:07:10.963Z,64.12
2023-03-30T06:09:38.821Z,65.03
2023-03-30T06:12:08.316Z,64.46
2023-03-30T06:14:36.962Z,64.98
2023-03-30T06:17:05.390Z,64.73
2023-03-30T06:19:33.285Z,66.31
2023-03-30T06:22:00.883Z,65.55
2023-03-30T06:24:29.379Z,64.86
2023-03-30T06:26:59.920Z,64.38
2023-03-30T06:29:27.718Z,63.88
2023-03-30T06:31:55.092Z,63.39
2023-03-30T06:34:33.795Z,63.28
2023-03-30T06:37:01.429Z,63.53
2023-03-30T06:39:30.017Z,65.98
2023-03-30T06:41:57.458Z,65.77
2023-03-30T06:44:25.323Z,67.23
2023-03-30T06:46:53.459Z,66.13
2023-03-30T06:49:20.931Z,65.02
2023-03-30T06:51:52.273Z,64.94
2023-03-30T06:54:20.826Z,64.64
2023-03-30T06:56:50.094Z,64.92
2023-03-30T06:59:18.307Z,64.47
2023-03-30T07:01:49.738Z,64.67
2023-03-30T07:04:18.198Z,64.18
2023-03-30T07:06:47.272Z,63.48
2023-03-30T07:09:15.045Z,63.44
2023-03-30T07:11:42.824Z,62.27
2023-03-30T07:14:12.723Z,61.73
2023-03-30T07:16:40.415Z,61.10
2023-03-30T07:19:08.106Z,61.40
2023-03-30T07:21:37.195Z,60.82
2023-03-30T07:24:06.162Z,61.87
2023-03-30T07:26:34.553Z,61.28
2023-03-30T07:29:04.754Z,60.52
2023-03-30T07:31:32.596Z,61.49
2023-03-30T07:34:03.195Z,61.18
2023-03-30T07:36:30.727Z,59.68
2023-03-30T07:38:58.729Z,60.71
2023-03-30T07:41:26.213Z,61.36
2023-03-30T07:43:53.918Z,60.50
2023-03-30T07:46:21.790Z,60.76
2023-03-30T07:48:49.785Z,60.61
2023-03-30T07:51:17.516Z,58.98
2023-03-30T07:53:48.146Z,58.65
2023-03-30T07:56:16.492Z,58.70
2023-03-30T07:58:44.296Z,59.38
2023-03-30T08:01:13.421Z,58.48
2023-03-30T08:03:45.342Z,57.88
2023-03-30T08:06:12.985Z,56.75
2023-03-30T08:08:41.431Z,57.30
2023-03-30T08:11:11.320Z,58.29
2023-03-30T08:13:41.306Z,57.79
2023-03-30T08:16:09.318Z,56.43
2023-03-30T08:18:41.731Z,56.01
2023-03-30T08:21:11.173Z,55.67
2023-03-30T08:23:38.670Z,56.54
2023-03-30T08:26:06.328Z,55.99
2023-03-30T08:28:34.330Z,55.20
2023-03-30T08:31:07.243Z,54.06
2023-03-30T08:33:35.520Z,53.13
2023-03-30T08:36:03.701Z,52.13
2023-03-30T08:38:31.333Z,53.56
2023-03-30T08:40:59.322Z,53.90
2023-03-30T08:43:40.569Z,52.78
2023-03-30T08:46:20.528Z,52.98
2023-03-30T08:48:49.411Z,52.42
2023-03-30T08:51:33.332Z,52.19
2023-03-30T08:54:05.721Z,51.29
2023-03-30T08:56:40.087Z,50.15
2023-03-30T08:59:23.413Z,51.05
2023-03-30T09:02:19.407Z,48.59
2023-03-30T09:05:04.972Z,47.77
2023-03-30T09:07:45.447Z,47.49
2023-03-30T09:10:15.083Z,46.78
2023-03-30T09:12:58.013Z,46.88
2023-03-30T09:15:33.428Z,47.00
2023-03-30T09:18:18.056Z,45.06
2023-03-30T09:20:48.437Z,44.25
2023-03-30T09:23:18.362Z,46.04
2023-03-30T09:26:11.487Z,45.15
2023-03-30T09:28:54.822Z,46.07
2023-03-30T09:31:41.843Z,45.33
2023-03-30T09:34:32.729Z,44.55
2023-03-30T09:37:07.741Z,44.75
2023-03-30T09:39:36.913Z,45.85
2023-03-30T09:42:34.255Z,46.39
2023-03-30T09:45:20.603Z,45.63
2023-03-30T09:47:48.117Z,47.77
2023-03-30T09:50:23.638Z,47.02
2023-03-30T09:53:01.064Z,44.15
2023-03-30T09:55:30.818Z,44.56
2023-03-30T09:58:18.853Z,43.58
2023-03-30T10:01:00.951Z,42.38
2023-03-30T10:03:29.383Z,42.09
2023-03-30T10:06:18.845Z,41.74
2023-03-30T10:08:57.941Z,42.69
2023-03-30T10:11:38.306Z,41.91
2023-03-30T10:14:07.964Z,42.39
2023-03-30T10:16:35.729Z,41.52
2023-03-30T10:19:15.164Z,42.06
2023-03-30T10:21:47.100Z,44.09
2023-03-30T10:24:14.435Z,42.65
2023-03-30T10:26:46.845Z,43.23
2023-03-30T10:29:18.524Z,43.44
2023-03-30T10:31:56.524Z,44.64
2023-03-30T10:34:36.298Z,44.29
2023-03-30T10:37:14.519Z,44.41
2023-03-30T10:39:46.000Z,44.17
2023-03-30T10:42:21.275Z,42.10
2023-03-30T10:44:53.750Z,42.85
2023-03-30T10:47:42.844Z,42.97
2023-03-30T10:50:42.949Z,41.70
2023-03-30T10:53:26.505Z,43.33
2023-03-30T10:56:15.876Z,42.77
2023-03-30T10:59:06.272Z,41.45
2023-03-30T11:01:34.032Z,40.88
2023-03-30T11:04:20.456Z,41.86
2023-03-30T11:06:53.303Z,41.42
2023-03-30T11:09:28.209Z,41.43
2023-03-30T11:12:01.615Z,41.03
2023-03-30T11:14:56.613Z,40.52
2023-03-30T11:17:29.748Z,40.68
2023-03-30T11:20:00.375Z,38.98
2023-03-30T11:22:44.794Z,40.30
2023-03-30T11:25:23.005Z,40.50
2023-03-30T11:28:09.558Z,40.36
2023-03-30T11:30:39.277Z,39.42
2023-03-30T11:33:09.926Z,39.56
2023-03-30T11:35:46.879Z,39.32
2023-03-30T11:38:23.662Z,39.00
2023-03-30T11:40:59.114Z,39.15
2023-03-30T11:43:30.505Z,39.05
2023-03-30T11:46:03.775Z,38.85
2023-03-30T11:49:02.847Z,40.10
2023-03-30T11:51:57.680Z,39.38
2023-03-30T11:54:59.882Z,39.70
2023-03-30T11:57:38.179Z,39.48
2023-03-30T12:00:38.511Z,38.81
2023-03-30T12:03:17.173Z,37.96
2023-03-30T12:05:48.932Z,37.77
2023-03-30T12:08:46.070Z,37.34
2023-03-30T12:11:54.956Z,38.00
2023-03-30T12:15:05.898Z,37.36
2023-03-30T12:17:53.665Z,36.95
2023-03-30T12:20:45.515Z,35.22
2023-03-30T12:23:28.254Z,34.71
2023-03-30T12:26:11.171Z,35.79
2023-03-30T12:29:15.291Z,36.14
2023-03-30T12:31:56.068Z,36.40
2023-03-30T12:34:27.910Z,35.88
2023-03-30T12:37:04.901Z,35.59
2023-03-30T12:39:49.130Z,36.34
2023-03-30T12:42:34.531Z,35.71
2023-03-30T12:45:33.313Z,35.74
2023-03-30T12:48:25.135Z,36.37
2023-03-30T12:51:23.274Z,35.96
2023-03-30T12:53:59.339Z,34.74
2023-03-30T12:56:37.378Z,33.96
2023-03-30T12:59:36.647Z,33.19
2023-03-30T13:02:28.548Z,34.63
2023-03-30T13:04:56.960Z,33.59
2023-03-30T13:07:28.605Z,33.27
2023-03-30T13:10:41.666Z,32.87
2023-03-30T13:13:23.928Z,33.40
2023-03-30T13:15:58.256Z,33.31
2023-03-30T13:18:33.847Z,34.04
2023-03-30T13:21:17.506Z,34.37
2023-03-30T13:24:00.108Z,35.19
2023-03-30T13:26:39.432Z,34.03
2023-03-30T13:29:11.672Z,33.40
2023-03-30T13:31:45.718Z,32.98
2023-03-30T13:34:22.174Z,32.68
2023-03-30T13:37:08.128Z,33.44
2023-03-30T13:40:39.616Z,33.36
2023-03-30T13:43:34.593Z,33.00
2023-03-30T13:46:24.539Z,34.50
2023-03-30T13:49:20.682Z,33.54
2023-03-30T13:51:49.318Z,34.24
2023-03-30T13:54:38.803Z,33.81
2023-03-30T13:57:19.394Z,34.38
2023-03-30T13:59:54.188Z,35.47
2023-03-30T14:02:23.342Z,35.42
2023-03-30T14:04:51.236Z,34.40
2023-03-30T14:07:22.281Z,34.87
2023-03-30T14:10:20.657Z,35.41
2023-03-30T14:12:54.611Z,34.38
2023-03-30T14:15:27.544Z,34.55
2023-03-30T14:17:58.723Z,34.46
2023-03-30T14:20:26.581Z,34.82
2023-03-30T14:22:56.002Z,34.13
2023-03-30T14:25:26.499Z,33.46
2023-03-30T14:27:56.675Z,33.75
2023-03-30T14:30:29.682Z,33.75
2023-03-30T14:33:07.084Z,32.88
2023-03-30T14:35:41.296Z,33.28
2023-03-30T14:38:38.549Z,33.04
2023-03-30T14:41:13.084Z,34.19
2023-03-30T14:43:41.811Z,34.17
2023-03-30T14:46:13.470Z,34.45
2023-03-30T14:48:43.357Z,33.50
2023-03-30T14:51:24.394Z,33.17
2023-03-30T14:53:53.272Z,32.96
2023-03-30T14:56:23.149Z,33.17
2023-03-30T14:58:52.597Z,33.73
2023-03-30T15:01:31.660Z,33.19
2023-03-30T15:04:15.132Z,32.92
2023-03-30T15:06:42.744Z,32.59
2023-03-30T15:09:17.629Z,31.68
2023-03-30T15:11:58.433Z,32.73
2023-03-30T15:14:28.893Z,33.07
2023-03-30T15:16:57.462Z,32.00
2023-03-30T15:19:31.287Z,31.39
2023-03-30T15:22:03.489Z,29.38
2023-03-30T15:24:37.657Z,27.09
2023-03-30T15:27:12.026Z,25.39
2023-03-30T15:29:41.499Z,23.96
2023-03-30T15:32:22.409Z,24.95
2023-03-30T15:35:05.199Z,25.02
2023-03-30T15:37:35.089Z,25.29
2023-03-30T15:40:04.424Z,24.06
2023-03-30T15:42:33.789Z,23.47
2023-03-30T15:45:10.014Z,22.54
2023-03-30T15:47:37.957Z,22.77
2023-03-30T15:50:06.004Z,23.90
2023-03-30T15:52:36.259Z,24.57
2023-03-30T15:55:21.307Z,26.72
2023-03-30T15:57:51.884Z,27.99
2023-03-30T16:00:22.516Z,30.27
2023-03-30T16:02:59.529Z,30.76
2023-03-30T16:05:29.473Z,31.97
2023-03-30T16:07:57.419Z,33.36
2023-03-30T16:10:28.002Z,33.44
2023-03-30T16:12:56.920Z,34.59
2023-03-30T16:15:31.220Z,35.29
2023-03-30T16:17:58.653Z,35.91
2023-03-30T16:20:31.895Z,36.80
2023-03-30T16:22:59.784Z,37.70
2023-03-30T16:25:37.855Z,38.40
2023-03-30T16:28:17.561Z,38.22
2023-03-30T16:30:48.525Z,39.36
2023-03-30T16:33:15.935Z,40.59
2023-03-30T16:35:43.563Z,40.82
2023-03-30T16:38:19.589Z,40.71
2023-03-30T16:40:53.939Z,42.42
2023-03-30T16:43:21.753Z,43.31
2023-03-30T16:45:49.139Z,43.46
2023-03-30T16:48:16.994Z,44.60
2023-03-30T16:50:47.204Z,45.50
2023-03-30T16:53:14.706Z,45.46
2023-03-30T16:55:42.223Z,45.76
2023-03-30T16:58:16.613Z,45.04
2023-03-30T17:00:50.006Z,46.09
2023-03-30T17:03:19.213Z,45.68
2023-03-30T17:05:48.950Z,47.19
2023-03-30T17:08:24.438Z,48.90
2023-03-30T17:10:54.419Z,48.82
2023-03-30T17:13:21.896Z,48.57
2023-03-30T17:15:49.362Z,48.01
2023-03-30T17:18:20.542Z,48.42
2023-03-30T17:20:52.217Z,49.22
2023-03-30T17:23:21.708Z,49.78
2023-03-30T17:25:49.778Z,50.50
2023-03-30T17:28:22.517Z,51.59
2023-03-30T17:30:52.478Z,51.01
2023-03-30T17:33:20.625Z,51.45
2023-03-30T17:35:55.089Z,51.79
2023-03-30T17:38:22.763Z,52.12
2023-03-30T17:40:50.777Z,52.89
2023-03-30T17:43:19.632Z,53.49
2023-03-30T17:45:47.494Z,53.30
2023-03-30T17:48:17.992Z,53.24
2023-03-30T17:50:48.108Z,55.09
2023-03-30T17:53:21.284Z,53.74
2023-03-30T17:55:52.052Z,54.89
2023-03-30T17:58:25.753Z,54.45
2023-03-30T18:00:53.705Z,54.76
2023-03-30T18:03:23.565Z,54.60
2023-03-30T18:05:52.641Z,53.29
2023-03-30T18:08:22.453Z,53.95
2023-03-30T18:10:55.396Z,53.56
2023-03-30T18:13:24.002Z,54.03
2023-03-30T18:15:55.101Z,56.27
2023-03-30T18:18:26.155Z,55.57
2023-03-30T18:20:55.082Z,55.30
2023-03-30T18:23:23.344Z,55.72
2023-03-30T18:25:51.378Z,55.10
2023-03-30T18:28:23.290Z,56.04
2023-03-30T18:30:53.388Z,56.58
2023-03-30T18:33:21.379Z,57.28
2023-03-30T18:35:50.759Z,56.33
2023-03-30T18:38:21.773Z,57.07
2023-03-30T18:40:53.638Z,56.38
2023-03-30T18:43:21.206Z,57.11
2023-03-30T18:45:50.136Z,57.16
2023-03-30T18:48:19.921Z,57.10
2023-03-30T18:50:54.886Z,56.97
2023-03-30T18:53:25.850Z,56.52
2023-03-30T18:55:57.360Z,56.63
2023-03-30T18:58:42.065Z,57.29
2023-03-30T19:01:12.156Z,56.14
2023-03-30T19:03:40.889Z,56.32
2023-03-30T19:06:22.847Z,56.55
2023-03-30T19:08:51.161Z,58.19
2023-03-30T19:11:23.981Z,58.07
2023-03-30T19:13:51.783Z,58.48
2023-03-30T19:16:19.124Z,57.47
2023-03-30T19:18:46.831Z,58.01
2023-03-30T19:21:17.215Z,58.21
2023-03-30T19:23:44.768Z,58.33
2023-03-30T19:26:12.907Z,57.67
2023-03-30T19:28:40.774Z,58.53
2023-03-30T19:31:13.654Z,58.13
2023-03-30T19:33:42.220Z,58.33
2023-03-30T19:36:10.522Z,57.58
2023-03-30T19:38:38.632Z,58.85
2023-03-30T19:41:07.742Z,58.13
2023-03-30T19:43:35.626Z,59.16
2023-03-30T19:46:03.121Z,58.84
2023-03-30T19:48:30.920Z,60.42
2023-03-30T19:50:58.252Z,60.02
2023-03-30T19:53:25.759Z,60.07
2023-03-30T19:55:54.592Z,59.80
2023-03-30T19:58:22.017Z,59.69
2023-03-30T20:00:49.797Z,60.08
2023-03-30T20:03:17.696Z,61.86
2023-03-30T20:05:50.668Z,62.23
2023-03-30T20:08:24.368Z,63.20
2023-03-30T20:10:52.571Z,61.00
2023-03-30T20:13:24.635Z,61.48
2023-03-30T20:15:56.086Z,62.26
2023-03-30T20:18:23.996Z,61.99
2023-03-30T20:20:51.706Z,63.28
2023-03-30T20:23:19.124Z,63.48
2023-03-30T20:25:49.585Z,62.05
2023-03-30T20:28:17.899Z,62.70
2023-03-30T20:30:46.747Z,63.47
2023-03-30T20:33:14.603Z,63.81
2023-03-30T20:35:42.091Z,63.31
2023-03-30T20:38:10.022Z,63.64
2023-03-30T20:40:37.756Z,62.85
2023-03-30T20:43:10.220Z,61.98
2023-03-30T20:45:46.425Z,62.66
2023-03-30T20:48:27.578Z,61.96
2023-03-30T20:50:56.355Z,61.57
2023-03-30T20:53:23.978Z,64.05
2023-03-30T20:55:51.315Z,62.57
2023-03-30T20:58:19.582Z,63.44
2023-03-30T21:00:47.568Z,64.11
2023-03-30T21:03:15.859Z,63.25
2023-03-30T21:05:43.501Z,63.65
2023-03-30T21:08:10.983Z,63.56
2023-03-30T21:10:42.536Z,64.13
2023-03-30T21:13:11.051Z,64.45
2023-03-30T21:15:38.453Z,61.63
2023-03-30T21:18:06.189Z,63.04
2023-03-30T21:20:33.849Z,63.16
2023-03-30T21:23:01.247Z,64.46
2023-03-30T21:25:29.392Z,65.14
2023-03-30T21:27:57.301Z,63.73
2023-03-30T21:30:24.576Z,64.54
2023-03-30T21:32:51.931Z,63.90
2023-03-30T21:35:19.564Z,63.41
2023-03-30T21:37:46.797Z,64.35
2023-03-30T21:40:14.150Z,63.81
2023-03-30T21:42:42.007Z,62.57
2023-03-30T21:45:11.907Z,62.93
2023-03-30T21:47:40.347Z,62.95
2023-03-30T21:50:08.339Z,63.81
2023-03-30T21:52:35.728Z,63.49
2023-03-30T21:55:03.690Z,63.78
2023-03-30T21:57:31.346Z,62.78
2023-03-30T21:59:58.681Z,63.15
2023-03-30T22:02:26.542Z,63.07
2023-03-30T22:04:54.293Z,62.99
2023-03-30T22:07:21.573Z,63.34
2023-03-30T22:09:48.821Z,63.91
2023-03-30T22:12:17.809Z,64.03
2023-03-30T22:14:45.168Z,63.86
2023-03-30T22:17:14.913Z,63.96
2023-03-30T22:19:44.044Z,63.20
2023-03-30T22:22:11.292Z,63.48
2023-03-30T22:24:38.699Z,62.83
2023-03-30T22:27:06.496Z,63.47
2023-03-30T22:29:34.113Z,63.75
2023-03-30T22:32:01.544Z,64.07
2023-03-30T22:34:29.261Z,63.68
2023-03-30T22:36:57.021Z,64.06
2023-03-30T22:39:24.427Z,64.54
2023-03-30T22:41:52.066Z,64.49
2023-03-30T22:44:20.082Z,65.33
2023-03-30T22:46:47.606Z,65.53
2023-03-30T22:49:15.554Z,67.14
2023-03-30T22:51:52.655Z,67.19
2023-03-30T22:54:20.725Z,66.93
2023-03-30T22:56:48.959Z,66.14
2023-03-30T22:59:16.721Z,66.12
2023-03-30T23:01:44.522Z,65.49
2023-03-30T23:04:12.269Z,66.23
2023-03-30T23:06:40.034Z,67.86
2023-03-30T23:09:07.784Z,67.57
2023-03-30T23:11:35.839Z,67.43
2023-03-30T23:14:06.005Z,67.64
2023-03-30T23:16:36.185Z,67.92
2023-03-30T23:19:04.637Z,67.84
2023-03-30T23:21:34.485Z,67.24
2023-03-30T23:24:04.420Z,68.48
2023-03-30T23:26:32.113Z,67.89
2023-03-30T23:28:59.706Z,68.40
2023-03-30T23:31:28.545Z,68.15
2023-03-30T23:33:56.457Z,69.63
2023-03-30T23:36:24.551Z,69.32
2023-03-30T23:38:52.254Z,68.43
2023-03-30T23:41:20.680Z,68.63
2023-03-30T23:43:48.557Z,67.57
2023-03-30T23:46:16.476Z,68.41
2023-03-30T23:48:44.814Z,68.72
2023-03-30T23:51:12.610Z,68.37
2023-03-30T23:53:41.862Z,68.53
2023-03-30T23:56:13.280Z,68.87
2023-03-30T23:58:41.633Z,68.70
